createdAt,value
2018-08-06T00:00:22.283Z,4.37
2018-08-06T00:02:51.135Z,4.40
2018-08-06T00:05:19.990Z,5.80
2018-08-06T00:07:49.195Z,4.70
2018-08-06T00:10:20.679Z,5.03
2018-08-06T00:12:49.443Z,6.03
2018-08-06T00:15:18.555Z,5.50
2018-08-06T00:17:47.646Z,5.27
2018-08-06T00:20:17.043Z,5.70
2018-08-06T00:22:46.347Z,7.00
2018-08-06T00:25:16.133Z,6.37
2018-08-06T00:27:45.311Z,5.47
2018-08-06T00:30:16.031Z,7.27
2018-08-06T00:32:45.752Z,5.40
2018-08-06T00:35:15.019Z,5.70
2018-08-06T00:37:44.167Z,6.23
2018-08-06T00:40:15.113Z,4.97
2018-08-06T00:42:44.624Z,4.90
2018-08-06T00:45:15.688Z,6.30
2018-08-06T00:47:44.870Z,6.20
2018-08-06T00:50:13.799Z,6.43
2018-08-06T00:52:42.919Z,4.17
2018-08-06T00:55:16.864Z,2.90
2018-08-06T00:57:45.702Z,2.80
2018-08-06T01:00:18.116Z,4.10
2018-08-06T01:02:47.822Z,3.90
2018-08-06T01:05:17.498Z,4.53
2018-08-06T01:07:46.832Z,5.63
2018-08-06T01:10:16.814Z,6.10
2018-08-06T01:12:45.513Z,5.23
2018-08-06T01:15:17.137Z,5.23
2018-08-06T01:17:46.247Z,4.40
2018-08-06T01:20:15.492Z,5.30
2018-08-06T01:22:44.968Z,5.80
2018-08-06T01:25:14.454Z,6.93
2018-08-06T01:27:43.441Z,6.67
2018-08-06T01:30:15.054Z,5.50
2018-08-06T01:32:43.969Z,6.50
2018-08-06T01:35:13.059Z,6.70
2018-08-06T01:37:41.831Z,6.63
2018-08-06T01:40:18.266Z,5.50
2018-08-06T01:42:47.189Z,6.20
2018-08-06T01:45:17.060Z,6.00
2018-08-06T01:47:46.185Z,6.07
2018-08-06T01:50:15.890Z,6.80
2018-08-06T01:52:45.129Z,6.30
2018-08-06T01:55:14.042Z,6.67
2018-08-06T01:57:43.010Z,8.10
2018-08-06T02:00:15.294Z,5.80
2018-08-06T02:02:44.356Z,6.27
2018-08-06T02:05:13.559Z,7.30
2018-08-06T02:07:42.564Z,6.67
2018-08-06T02:10:13.760Z,6.30
2018-08-06T02:12:43.383Z,5.83
2018-08-06T02:15:12.679Z,6.90
2018-08-06T02:17:41.696Z,6.10
2018-08-06T02:20:13.070Z,6.60
2018-08-06T02:22:42.165Z,5.53
2018-08-06T02:25:11.727Z,5.93
2018-08-06T02:27:40.954Z,5.47
2018-08-06T02:30:15.012Z,5.20
2018-08-06T02:32:43.708Z,6.20
2018-08-06T02:35:14.007Z,6.17
2018-08-06T02:37:43.170Z,6.50
2018-08-06T02:40:14.083Z,7.20
2018-08-06T02:42:42.825Z,7.30
2018-08-06T02:45:12.060Z,6.33
2018-08-06T02:47:41.042Z,6.63
2018-08-06T02:50:11.115Z,5.87
2018-08-06T02:52:41.918Z,6.60
2018-08-06T02:55:12.969Z,7.40
2018-08-06T02:57:42.011Z,6.83
2018-08-06T03:00:14.081Z,7.10
2018-08-06T03:02:44.189Z,7.20
2018-08-06T03:05:15.128Z,8.00
2018-08-06T03:07:44.738Z,6.30
2018-08-06T03:10:13.863Z,5.47
2018-08-06T03:12:43.980Z,6.20
2018-08-06T03:15:13.219Z,7.30
2018-08-06T03:17:43.230Z,5.87
2018-08-06T03:20:13.437Z,6.40
2018-08-06T03:22:42.221Z,6.33
2018-08-06T03:25:12.914Z,6.23
2018-08-06T03:27:42.116Z,6.50
2018-08-06T03:30:13.439Z,6.20
2018-08-06T03:32:42.419Z,6.10
2018-08-06T03:35:12.019Z,6.57
2018-08-06T03:37:41.084Z,6.60
2018-08-06T03:40:10.765Z,6.13
2018-08-06T03:42:40.345Z,6.43
2018-08-06T03:45:10.655Z,6.80
2018-08-06T03:47:40.345Z,6.27
2018-08-06T03:50:10.404Z,5.47
2018-08-06T03:52:39.626Z,7.90
2018-08-06T03:55:10.092Z,8.17
2018-08-06T03:57:39.311Z,8.20
2018-08-06T04:00:10.970Z,7.30
2018-08-06T04:02:40.334Z,7.30
2018-08-06T04:05:11.208Z,7.33
2018-08-06T04:07:40.697Z,8.30
2018-08-06T04:10:17.449Z,7.47
2018-08-06T04:12:46.623Z,8.03
2018-08-06T04:15:15.450Z,7.03
2018-08-06T04:17:44.838Z,7.13
2018-08-06T04:20:14.339Z,7.63
2018-08-06T04:22:43.782Z,9.07
2018-08-06T04:25:12.611Z,9.00
2018-08-06T04:27:41.879Z,9.90
2018-08-06T04:30:13.288Z,9.27
2018-08-06T04:32:44.211Z,9.80
2018-08-06T04:35:13.242Z,10.57
2018-08-06T04:37:43.291Z,10.57
2018-08-06T04:40:13.113Z,9.90
2018-08-06T04:42:42.872Z,8.97
2018-08-06T04:45:12.093Z,10.23
2018-08-06T04:47:42.072Z,10.47
2018-08-06T04:50:12.936Z,10.90
2018-08-06T04:52:41.910Z,11.17
2018-08-06T04:55:12.679Z,10.90
2018-08-06T04:57:42.204Z,11.67
2018-08-06T05:00:13.690Z,10.40
2018-08-06T05:02:43.300Z,11.20
2018-08-06T05:05:12.251Z,10.97
2018-08-06T05:07:41.377Z,10.93
2018-08-06T05:10:10.459Z,10.93
2018-08-06T05:12:39.232Z,9.87
2018-08-06T05:15:08.274Z,10.33
2018-08-06T05:17:37.063Z,11.37
2018-08-06T05:20:06.367Z,10.87
2018-08-06T05:22:35.125Z,9.63
2018-08-06T05:25:04.262Z,9.93
2018-08-06T05:27:33.416Z,9.73
2018-08-06T05:30:02.813Z,8.57
2018-08-06T05:32:32.206Z,8.83
2018-08-06T05:35:01.177Z,9.97
2018-08-06T05:37:29.978Z,7.80
2018-08-06T05:39:59.678Z,7.90
2018-08-06T05:42:28.862Z,9.10
2018-08-06T05:44:57.652Z,8.03
2018-08-06T05:47:26.419Z,8.13
2018-08-06T05:49:55.551Z,7.00
2018-08-06T05:52:24.892Z,6.97
2018-08-06T05:54:53.894Z,8.90
2018-08-06T05:57:23.345Z,7.07
2018-08-06T05:59:52.149Z,6.67
2018-08-06T06:02:20.936Z,6.70
2018-08-06T06:04:49.680Z,6.30
2018-08-06T06:07:18.399Z,6.07
2018-08-06T06:09:47.491Z,6.10
2018-08-06T06:12:16.197Z,6.07
2018-08-06T06:14:51.555Z,5.33
2018-08-06T06:17:20.291Z,4.87
2018-08-06T06:19:49.608Z,5.40
2018-08-06T06:22:18.422Z,5.67
2018-08-06T06:24:47.206Z,4.83
2018-08-06T06:27:15.969Z,3.87
2018-08-06T06:29:45.013Z,4.40
2018-08-06T06:32:14.044Z,3.20
2018-08-06T06:34:42.827Z,3.97
2018-08-06T06:37:11.598Z,2.90
2018-08-06T06:39:41.114Z,2.70
2018-08-06T06:42:10.179Z,2.43
2018-08-06T06:44:38.978Z,2.10
2018-08-06T06:47:07.690Z,2.60
2018-08-06T06:49:36.693Z,2.47
2018-08-06T06:52:05.410Z,2.00
2018-08-06T06:54:34.517Z,2.40
2018-08-06T06:57:03.224Z,2.37
2018-08-06T06:59:32.018Z,1.77
2018-08-06T07:02:01.046Z,2.10
2018-08-06T07:04:29.986Z,1.60
2018-08-06T07:06:58.796Z,2.13
2018-08-06T07:09:28.091Z,1.63
2018-08-06T07:11:56.793Z,1.43
2018-08-06T07:14:25.628Z,1.00
2018-08-06T07:16:54.575Z,1.40
2018-08-06T07:19:23.585Z,1.50
2018-08-06T07:21:52.591Z,1.57
2018-08-06T07:24:21.378Z,1.30
2018-08-06T07:26:50.134Z,1.00
2018-08-06T07:29:19.170Z,1.20
2018-08-06T07:31:48.224Z,1.10
2018-08-06T07:34:18.185Z,1.47
2018-08-06T07:36:47.291Z,1.47
2018-08-06T07:39:16.212Z,1.00
2018-08-06T07:41:44.958Z,1.33
2018-08-06T07:44:13.904Z,1.83
2018-08-06T07:46:42.629Z,1.20
2018-08-06T07:49:11.632Z,0.97
2018-08-06T07:51:40.554Z,1.00
2018-08-06T07:54:09.285Z,1.00
2018-08-06T07:56:38.009Z,1.23
2018-08-06T07:59:07.270Z,1.10
2018-08-06T08:01:36.755Z,0.80
2018-08-06T08:04:05.467Z,1.10
2018-08-06T08:06:34.195Z,1.00
2018-08-06T08:09:03.386Z,1.00
2018-08-06T08:11:32.106Z,1.50
2018-08-06T08:14:01.180Z,1.37
2018-08-06T08:16:29.937Z,0.97
2018-08-06T08:18:58.900Z,1.10
2018-08-06T08:21:27.671Z,0.90
2018-08-06T08:23:56.361Z,1.00
2018-08-06T08:26:25.392Z,1.33
2018-08-06T08:28:54.408Z,0.87
2018-08-06T08:31:23.333Z,1.27
2018-08-06T08:33:52.209Z,0.90
2018-08-06T08:36:21.542Z,0.80
2018-08-06T08:38:50.968Z,0.70
2018-08-06T08:41:19.690Z,0.70
2018-08-06T08:43:48.466Z,1.10
2018-08-06T08:46:17.651Z,0.87
2018-08-06T08:48:46.711Z,1.00
2018-08-06T08:51:15.438Z,0.93
2018-08-06T08:53:44.188Z,0.90
2018-08-06T08:56:13.211Z,1.10
2018-08-06T08:58:41.975Z,1.10
2018-08-06T09:01:10.898Z,1.10
2018-08-06T09:03:39.613Z,1.30
2018-08-06T09:06:15.243Z,1.33
2018-08-06T09:08:43.989Z,1.20
2018-08-06T09:11:12.750Z,1.00
2018-08-06T09:13:41.794Z,1.40
2018-08-06T09:16:11.139Z,1.10
2018-08-06T09:18:40.074Z,1.17
2018-08-06T09:21:09.573Z,1.00
2018-08-06T09:23:38.644Z,1.10
2018-08-06T09:26:07.704Z,1.00
2018-08-06T09:28:36.400Z,1.30
2018-08-06T09:31:05.167Z,0.97
2018-08-06T09:33:34.767Z,1.17
2018-08-06T09:36:03.491Z,1.10
2018-08-06T09:38:32.224Z,0.87
2018-08-06T09:41:01.230Z,0.90
2018-08-06T09:43:29.995Z,1.30
2018-08-06T09:45:59.421Z,1.50
2018-08-06T09:48:28.216Z,0.73
2018-08-06T09:50:57.298Z,1.10
2018-08-06T09:53:26.389Z,1.00
2018-08-06T09:55:55.171Z,1.33
2018-08-06T09:58:24.581Z,1.17
2018-08-06T10:01:58.528Z,1.10
2018-08-06T10:04:28.336Z,0.87
2018-08-06T10:06:57.426Z,1.00
2018-08-06T10:09:26.183Z,1.00
2018-08-06T10:11:54.993Z,1.00
2018-08-06T10:14:23.715Z,1.27
2018-08-06T10:16:52.520Z,1.20
2018-08-06T10:19:21.288Z,1.07
2018-08-06T10:21:50.000Z,1.00
2018-08-06T10:24:19.114Z,1.13
2018-08-06T10:26:48.116Z,1.00
2018-08-06T10:29:16.842Z,1.20
2018-08-06T10:31:45.708Z,0.77
2018-08-06T10:34:14.418Z,0.97
2018-08-06T10:36:43.129Z,0.97
2018-08-06T10:39:12.472Z,1.40
2018-08-06T10:41:41.506Z,1.00
2018-08-06T10:44:10.234Z,0.93
2018-08-06T10:46:39.590Z,1.43
2018-08-06T10:49:08.311Z,1.20
2018-08-06T10:51:37.021Z,1.10
2018-08-06T10:54:06.024Z,1.20
2018-08-06T10:56:34.764Z,1.10
2018-08-06T10:59:03.468Z,0.97
2018-08-06T11:01:32.216Z,1.10
2018-08-06T11:04:00.958Z,0.80
2018-08-06T11:06:30.285Z,1.30
2018-08-06T11:08:58.974Z,1.20
2018-08-06T11:11:28.352Z,0.90
2018-08-06T11:13:57.084Z,1.07
2018-08-06T11:16:25.783Z,0.93
2018-08-06T11:18:54.994Z,1.00
2018-08-06T11:21:23.943Z,1.03
2018-08-06T11:23:52.679Z,1.10
2018-08-06T11:26:21.622Z,0.80
2018-08-06T11:28:50.334Z,1.10
2018-08-06T11:31:19.106Z,0.97
2018-08-06T11:33:47.826Z,0.90
2018-08-06T11:36:16.572Z,1.23
2018-08-06T11:38:45.279Z,1.43
2018-08-06T11:41:14.014Z,1.10
2018-08-06T11:43:43.065Z,0.97
2018-08-06T11:46:11.802Z,1.00
2018-08-06T11:48:40.523Z,0.97
2018-08-06T11:51:09.285Z,1.33
2018-08-06T11:53:40.857Z,1.10
2018-08-06T11:56:09.663Z,0.87
2018-08-06T11:58:38.950Z,1.40
2018-08-06T12:01:08.274Z,1.13
2018-08-06T12:03:37.468Z,1.10
2018-08-06T12:06:06.223Z,1.30
2018-08-06T12:08:35.331Z,1.37
2018-08-06T12:11:04.090Z,1.30
2018-08-06T12:13:33.174Z,1.10
2018-08-06T12:16:02.278Z,1.03
2018-08-06T12:18:31.295Z,1.10
2018-08-06T12:21:00.929Z,1.23
2018-08-06T12:23:29.604Z,1.10
2018-08-06T12:25:58.704Z,1.10
2018-08-06T12:28:27.433Z,0.90
2018-08-06T12:30:56.449Z,1.20
2018-08-06T12:33:25.234Z,1.70
2018-08-06T12:35:54.197Z,1.23
2018-08-06T12:38:23.200Z,0.97
2018-08-06T12:40:52.266Z,1.20
2018-08-06T12:43:21.003Z,1.43
2018-08-06T12:45:49.742Z,1.30
2018-08-06T12:48:18.508Z,1.03
2018-08-06T12:50:47.322Z,1.23
2018-08-06T12:53:16.338Z,1.10
2018-08-06T12:55:45.117Z,1.30
2018-08-06T12:58:14.270Z,1.17
2018-08-06T13:00:43.010Z,0.87
2018-08-06T13:03:11.816Z,1.63
2018-08-06T13:05:40.816Z,1.00
2018-08-06T13:08:09.606Z,1.23
2018-08-06T13:10:38.361Z,1.50
2018-08-06T13:13:07.144Z,1.50
2018-08-06T13:15:35.875Z,0.97
2018-08-06T13:18:05.202Z,1.17
2018-08-06T13:20:34.232Z,1.17
2018-08-06T13:23:03.367Z,1.00
2018-08-06T13:25:32.180Z,1.23
2018-08-06T13:28:01.580Z,1.40
2018-08-06T13:30:30.319Z,1.10
2018-08-06T13:32:59.058Z,1.40
2018-08-06T13:35:28.178Z,1.37
2018-08-06T13:37:57.170Z,1.13
2018-08-06T13:40:25.919Z,1.20
2018-08-06T13:42:55.346Z,1.10
2018-08-06T13:45:24.119Z,0.93
2018-08-06T13:47:53.187Z,1.40
2018-08-06T13:50:22.344Z,1.07
2018-08-06T13:52:51.537Z,1.10
2018-08-06T13:55:20.323Z,1.00
2018-08-06T13:57:49.404Z,1.03
2018-08-06T14:00:19.705Z,1.20
2018-08-06T14:02:48.924Z,1.00
2018-08-06T14:05:18.520Z,1.50
2018-08-06T14:07:48.789Z,1.00
2018-08-06T14:10:18.150Z,1.17
2018-08-06T14:12:46.944Z,0.90
2018-08-06T14:15:18.998Z,1.30
2018-08-06T14:17:48.039Z,1.47
2018-08-06T14:20:18.419Z,1.03
2018-08-06T14:22:47.208Z,1.17
2018-08-06T14:25:15.960Z,1.00
2018-08-06T14:27:44.729Z,1.00
2018-08-06T14:30:15.198Z,1.20
2018-08-06T14:32:44.704Z,1.10
2018-08-06T14:35:14.367Z,1.50
2018-08-06T14:37:43.478Z,1.20
2018-08-06T14:40:15.432Z,1.40
2018-08-06T14:42:45.356Z,0.97
2018-08-06T14:45:14.101Z,1.20
2018-08-06T14:47:42.858Z,1.27
2018-08-06T14:50:13.452Z,1.30
2018-08-06T14:52:42.251Z,1.40
2018-08-06T14:55:11.388Z,1.03
2018-08-06T14:57:41.435Z,1.00
2018-08-06T15:00:16.812Z,1.10
2018-08-06T15:02:46.670Z,1.00
2018-08-06T15:05:16.461Z,1.20
2018-08-06T15:07:45.837Z,1.10
2018-08-06T15:10:15.140Z,1.10
2018-08-06T15:12:45.259Z,0.93
2018-08-06T15:15:14.979Z,1.60
2018-08-06T15:17:45.025Z,1.27
2018-08-06T15:20:18.890Z,1.33
2018-08-06T15:22:47.857Z,1.20
2018-08-06T15:25:21.787Z,1.03
2018-08-06T15:27:51.551Z,1.10
2018-08-06T15:30:20.940Z,1.43
2018-08-06T15:32:49.692Z,1.20
2018-08-06T15:35:18.427Z,1.13
2018-08-06T15:37:47.151Z,1.60
2018-08-06T15:40:19.212Z,1.00
2018-08-06T15:42:47.963Z,1.13
2018-08-06T15:45:16.666Z,1.07
2018-08-06T15:47:46.542Z,0.90
2018-08-06T15:50:17.741Z,1.20
2018-08-06T15:52:46.793Z,1.30
2018-08-06T15:55:15.797Z,1.63
2018-08-06T15:57:44.620Z,1.30
2018-08-06T16:00:16.269Z,0.87
2018-08-06T16:02:45.930Z,1.10
2018-08-06T16:05:15.168Z,1.30
2018-08-06T16:07:44.022Z,0.93
2018-08-06T16:10:13.413Z,1.27
2018-08-06T16:12:42.586Z,2.00
2018-08-06T16:15:13.106Z,1.00
2018-08-06T16:17:42.613Z,1.20
2018-08-06T16:20:13.352Z,1.27
2018-08-06T16:22:42.610Z,0.80
2018-08-06T16:25:11.944Z,0.97
2018-08-06T16:27:40.936Z,1.23
2018-08-06T16:30:12.471Z,1.17
2018-08-06T16:32:41.224Z,1.30
2018-08-06T16:35:10.196Z,1.17
2018-08-06T16:37:38.949Z,1.43
2018-08-06T16:40:08.656Z,1.60
2018-08-06T16:42:37.674Z,0.90
2018-08-06T16:45:07.486Z,1.30
2018-08-06T16:47:37.064Z,1.10
2018-08-06T16:50:06.533Z,1.20
2018-08-06T16:52:35.368Z,1.27
2018-08-06T16:55:04.823Z,1.10
2018-08-06T16:57:33.944Z,1.17
2018-08-06T17:00:02.776Z,1.30
2018-08-06T17:02:31.792Z,1.10
2018-08-06T17:05:00.782Z,1.00
2018-08-06T17:07:29.545Z,1.03
2018-08-06T17:09:58.609Z,1.20
2018-08-06T17:12:27.344Z,1.43
2018-08-06T17:14:56.077Z,1.20
2018-08-06T17:17:24.870Z,1.50
2018-08-06T17:19:54.100Z,1.30
2018-08-06T17:22:22.927Z,1.37
2018-08-06T17:24:51.690Z,1.47
2018-08-06T17:27:20.761Z,1.27
2018-08-06T17:29:49.620Z,1.23
2018-08-06T17:32:18.324Z,1.23
2018-08-06T17:34:47.112Z,1.23
2018-08-06T17:37:16.106Z,0.90
2018-08-06T17:39:45.616Z,1.10
2018-08-06T17:42:14.378Z,1.20
2018-08-06T17:44:43.480Z,1.40
2018-08-06T17:47:12.551Z,1.37
2018-08-06T17:49:41.647Z,1.73
2018-08-06T17:52:10.759Z,1.67
2018-08-06T17:54:39.480Z,1.10
2018-08-06T17:57:08.241Z,1.47
2018-08-06T17:59:37.238Z,1.60
2018-08-06T18:02:06.465Z,1.03
2018-08-06T18:04:35.226Z,1.30
2018-08-06T18:07:05.137Z,1.27
2018-08-06T18:09:33.968Z,1.40
2018-08-06T18:12:03.171Z,1.30
2018-08-06T18:14:31.866Z,1.40
2018-08-06T18:17:01.118Z,1.30
2018-08-06T18:19:29.897Z,1.43
2018-08-06T18:21:58.751Z,1.30
2018-08-06T18:24:27.589Z,1.40
2018-08-06T18:26:59.274Z,1.60
2018-08-06T18:29:28.204Z,1.37
2018-08-06T18:31:57.375Z,1.20
2018-08-06T18:34:26.366Z,1.40
2018-08-06T18:36:55.750Z,1.60
2018-08-06T18:39:24.523Z,1.63
2018-08-06T18:41:53.658Z,1.70
2018-08-06T18:44:22.687Z,1.30
2018-08-06T18:46:52.669Z,1.80
2018-08-06T18:49:21.531Z,1.40
2018-08-06T18:51:51.393Z,1.97
2018-08-06T18:54:20.694Z,1.60
2018-08-06T18:56:49.401Z,1.43
2018-08-06T18:59:18.200Z,1.10
2018-08-06T19:01:47.555Z,1.70
2018-08-06T19:04:16.500Z,1.67
2018-08-06T19:06:45.255Z,1.20
2018-08-06T19:09:16.717Z,1.17
2018-08-06T19:11:46.181Z,1.57
2018-08-06T19:14:20.805Z,1.80
2018-08-06T19:16:50.939Z,1.60
2018-08-06T19:19:27.609Z,2.10
2018-08-06T19:21:57.778Z,1.80
2018-08-06T19:24:31.785Z,1.43
2018-08-06T19:27:00.426Z,1.50
2018-08-06T19:29:29.176Z,1.97
2018-08-06T19:31:57.919Z,1.93
2018-08-06T19:34:26.997Z,1.63
2018-08-06T19:37:01.407Z,1.60
2018-08-06T19:39:30.136Z,1.43
2018-08-06T19:41:59.086Z,2.30
2018-08-06T19:44:28.304Z,1.70
2018-08-06T19:46:57.637Z,2.07
2018-08-06T19:49:31.438Z,1.80
2018-08-06T19:52:00.239Z,1.90
2018-08-06T19:54:29.355Z,2.10
2018-08-06T19:56:58.180Z,2.37
2018-08-06T19:59:27.139Z,1.90
2018-08-06T20:01:55.895Z,2.20
2018-08-06T20:04:24.712Z,2.30
2018-08-06T20:06:53.513Z,2.37
2018-08-06T20:09:22.451Z,2.00
2018-08-06T20:11:51.563Z,1.73
2018-08-06T20:14:20.873Z,1.90
2018-08-06T20:16:50.192Z,1.73
2018-08-06T20:19:18.945Z,2.20
2018-08-06T20:21:48.195Z,2.63
2018-08-06T20:24:17.075Z,2.57
2018-08-06T20:26:45.872Z,1.97
2018-08-06T20:29:14.625Z,2.60
2018-08-06T20:31:43.397Z,1.93
2018-08-06T20:34:12.175Z,2.67
2018-08-06T20:36:41.201Z,1.80
2018-08-06T20:39:10.895Z,2.37
2018-08-06T20:41:39.670Z,2.40
2018-08-06T20:44:08.456Z,2.20
2018-08-06T20:46:37.191Z,2.60
2018-08-06T20:49:06.475Z,1.97
2018-08-06T20:51:35.283Z,2.53
2018-08-06T20:54:04.533Z,2.70
2018-08-06T20:56:33.258Z,3.13
2018-08-06T20:59:02.284Z,2.50
2018-08-06T21:01:31.292Z,2.60
2018-08-06T21:04:00.031Z,2.03
2018-08-06T21:06:30.362Z,2.37
2018-08-06T21:08:59.431Z,2.80
2018-08-06T21:11:28.247Z,2.50
2018-08-06T21:13:57.410Z,2.97
2018-08-06T21:16:26.450Z,2.80
2018-08-06T21:18:55.805Z,2.73
2018-08-06T21:21:24.580Z,2.97
2018-08-06T21:23:53.495Z,3.00
2018-08-06T21:26:22.218Z,2.57
2018-08-06T21:28:51.461Z,2.70
2018-08-06T21:31:25.497Z,2.87
2018-08-06T21:33:54.703Z,2.60
2018-08-06T21:36:23.749Z,2.70
2018-08-06T21:38:52.887Z,2.87
2018-08-06T21:41:21.834Z,3.17
2018-08-06T21:43:50.924Z,2.50
2018-08-06T21:46:19.983Z,2.50
2018-08-06T21:48:49.277Z,3.07
2018-08-06T21:51:18.257Z,3.27
2018-08-06T21:53:46.995Z,2.47
2018-08-06T21:56:16.246Z,2.97
2018-08-06T21:58:45.558Z,2.80
2018-08-06T22:01:14.528Z,2.50
2018-08-06T22:03:43.839Z,2.57
2018-08-06T22:06:12.659Z,2.90
2018-08-06T22:08:42.714Z,3.80
2018-08-06T22:11:11.882Z,3.60
2018-08-06T22:13:41.081Z,3.53
2018-08-06T22:16:10.192Z,3.90
2018-08-06T22:18:39.372Z,3.27
2018-08-06T22:21:08.323Z,3.03
2018-08-06T22:23:37.061Z,3.87
2018-08-06T22:26:06.525Z,3.17
2018-08-06T22:28:35.385Z,3.37
2018-08-06T22:31:04.347Z,3.30
2018-08-06T22:33:33.372Z,3.27
2018-08-06T22:36:02.310Z,2.77
2018-08-06T22:38:31.485Z,3.20
2018-08-06T22:41:00.956Z,2.83
2018-08-06T22:43:30.054Z,3.43
2018-08-06T22:45:59.496Z,3.30
2018-08-06T22:48:28.955Z,3.33
2018-08-06T22:50:57.831Z,3.33
2018-08-06T22:53:27.363Z,3.57
2018-08-06T22:56:04.578Z,3.50
2018-08-06T22:58:33.894Z,4.27
2018-08-06T23:01:02.724Z,3.60
2018-08-06T23:03:31.862Z,4.00
2018-08-06T23:06:00.950Z,3.87
2018-08-06T23:08:29.919Z,4.17
2018-08-06T23:10:59.103Z,4.07
2018-08-06T23:13:28.261Z,4.10
2018-08-06T23:15:57.302Z,4.43
2018-08-06T23:18:26.105Z,4.30
2018-08-06T23:20:54.901Z,4.83
2018-08-06T23:23:23.710Z,3.20
2018-08-06T23:25:52.757Z,4.10
2018-08-06T23:28:21.586Z,4.00
2018-08-06T23:30:50.480Z,4.03
2018-08-06T23:33:19.493Z,4.97
2018-08-06T23:35:48.448Z,4.83
2018-08-06T23:38:17.251Z,5.00
2018-08-06T23:40:46.018Z,4.83
2018-08-06T23:43:15.108Z,4.20
2018-08-06T23:45:43.941Z,4.17
2018-08-06T23:48:13.011Z,4.43
2018-08-06T23:50:41.761Z,4.27
2018-08-06T23:53:10.816Z,4.60
2018-08-06T23:55:40.090Z,5.70
2018-08-06T23:58:09.783Z,4.53
